Terminal Aerodrome Forecast
Issued by NWS

Home | Current Version | Previous Version | Text Only | Print | Product List | Glossary On
Versions: 1 2 3 4 5 6 7 8 9 10 11 12 13 14 15
000
FTUS43 KICT 161100
TAFSLN
TAF
KSLN 161125Z 1612/1712 19024G32KT P6SM BKN250 WS020/19045KT
     FM161900 27015G24KT P6SM SCT250
     FM162100 33016G22KT P6SM BKN250
     FM170200 02013KT P6SM OVC120=

USA.gov is the U.S. government's official web portal to all federal, state and local government web resources and services.